Terminal Aerodrome Forecast
Issued by NWS

Current Version | Previous Version | Text Only | Print | Product List | Glossary On
Versions: 1 2 3 4 5 6 7 8 9 10 11 12 13 14 15
752
FTUS42 KTAE 170521
TAFECP
TAF
KECP 170521Z 1706/1806 35009KT P6SM BKN250
     FM171200 04010G15KT P6SM SCT250=

USA.gov is the U.S. government's official web portal to all federal, state and local government web resources and services.